Time;durP1;ratioP1;P1;durP2;ratioP2;P2;SDS_P1;SDS_P2;PMS_P1;PMS_P2;Temp;Humidity;BMP_temperature;BMP_pressure;BME280_temperature;BME280_humidity;BME280_pressure;Samples;Min_cycle;Max_cycle;Signal;HPM_P1;HPM_P2
2024/02/22 00:09:09;;;;;;;56.72;29.02;;;3.00;99.90;;;;;;20528744;28;21020;-42
2024/02/22 00:19:12;;;;;;;61.45;31.42;;;3.00;99.90;;;;;;20523779;28;20163;-43
2024/02/22 00:29:15;;;;;;;53.65;26.13;;;3.10;99.90;;;;;;20523649;28;20053;-40
2024/02/22 00:39:17;;;;;;;45.13;23.75;;;3.20;99.90;;;;;;20523335;28;20156;-43
2024/02/22 00:49:19;;;;;;;45.10;23.48;;;3.30;99.90;;;;;;20521894;28;20263;-41
2024/02/22 00:59:21;;;;;;;44.63;23.23;;;3.20;99.90;;;;;;20524425;28;20077;-41
2024/02/22 01:09:23;;;;;;;44.20;24.00;;;3.30;99.90;;;;;;20521532;28;20206;-43
2024/02/22 01:19:25;;;;;;;33.90;16.60;;;3.30;99.90;;;;;;20520599;28;20124;-40
2024/02/22 01:29:27;;;;;;;32.00;16.25;;;3.40;99.90;;;;;;20518980;28;21224;-42
2024/02/22 01:39:29;;;;;;;12.77;7.88;;;3.80;99.90;;;;;;20522001;28;21172;-43
2024/02/22 01:49:31;;;;;;;17.85;9.52;;;4.30;99.90;;;;;;20522075;28;21226;-42
2024/02/22 01:59:33;;;;;;;16.83;8.70;;;4.50;99.90;;;;;;20525248;28;21154;-40
2024/02/22 02:09:35;;;;;;;24.38;13.52;;;4.40;99.90;;;;;;20519939;28;21794;-40
2024/02/22 02:19:37;;;;;;;26.42;14.68;;;4.40;99.90;;;;;;20535333;28;20943;-42
2024/02/22 02:29:38;;;;;;;30.55;15.60;;;4.20;99.90;;;;;;20517003;28;20219;-41
2024/02/22 02:39:41;;;;;;;25.55;14.00;;;4.00;99.90;;;;;;20532710;28;20131;-40
2024/02/22 02:49:43;;;;;;;16.42;9.10;;;4.00;99.90;;;;;;20528215;28;21170;-42
2024/02/22 02:59:45;;;;;;;15.00;7.82;;;4.10;99.90;;;;;;20533099;28;22062;-42
2024/02/22 03:09:50;;;;;;;15.23;8.52;;;4.30;99.90;;;;;;20531265;28;21101;-41
2024/02/22 03:19:56;;;;;;;34.95;16.42;;;4.40;99.90;;;;;;20528129;28;20160;-40
2024/02/22 03:29:59;;;;;;;26.10;13.27;;;4.20;99.90;;;;;;20529865;28;20515;-41
2024/02/22 03:40:01;;;;;;;27.08;13.63;;;4.10;99.90;;;;;;20528157;28;20718;-40
2024/02/22 03:50:04;;;;;;;32.38;16.58;;;4.10;99.90;;;;;;20528616;28;20226;-42
2024/02/22 04:00:07;;;;;;;40.83;21.35;;;3.80;99.90;;;;;;20528316;28;20228;-41
2024/02/22 04:10:14;;;;;;;50.33;25.55;;;3.60;99.90;;;;;;20524471;28;20191;-41
2024/02/22 04:20:16;;;;;;;43.53;21.60;;;3.10;99.90;;;;;;20523318;28;20140;-41
2024/02/22 04:30:18;;;;;;;37.58;21.05;;;2.70;99.90;;;;;;20525932;28;20131;-40
2024/02/22 04:40:20;;;;;;;46.33;22.30;;;2.70;99.90;;;;;;20522396;28;20124;-41
2024/02/22 04:50:22;;;;;;;55.53;28.58;;;2.70;99.90;;;;;;20518001;28;20191;-41
2024/02/22 05:00:24;;;;;;;56.72;29.98;;;2.60;99.90;;;;;;20518763;28;20191;-41
2024/02/22 05:10:25;;;;;;;53.80;25.90;;;2.60;99.90;;;;;;20522872;28;20098;-42
2024/02/22 05:20:27;;;;;;;33.50;17.08;;;2.50;99.90;;;;;;20519725;28;20629;-40
2024/02/22 05:30:29;;;;;;;41.53;19.17;;;2.80;99.90;;;;;;20519012;28;20196;-41
2024/02/22 05:40:31;;;;;;;68.13;33.15;;;3.10;99.90;;;;;;20514292;28;20979;-43
2024/02/22 05:50:33;;;;;;;81.82;38.85;;;3.10;99.90;;;;;;20530551;28;20091;-40
2024/02/22 06:00:38;;;;;;;64.88;31.15;;;3.00;99.90;;;;;;20536380;28;21201;-41
2024/02/22 06:10:42;;;;;;;41.35;19.85;;;2.80;99.90;;;;;;20529706;28;20474;-40
2024/02/22 06:20:44;;;;;;;41.08;21.13;;;2.70;99.90;;;;;;20529089;28;20128;-40
2024/02/22 06:30:47;;;;;;;52.70;26.42;;;2.90;99.90;;;;;;20528503;28;20164;-40
2024/02/22 06:40:55;;;;;;;65.60;32.67;;;3.10;99.90;;;;;;20527040;28;20128;-41
2024/02/22 06:50:57;;;;;;;60.90;31.15;;;3.50;99.90;;;;;;20527195;28;20144;-42
2024/02/22 07:00:58;;;;;;;57.40;30.60;;;3.60;99.90;;;;;;20527092;28;20163;-42
2024/02/22 07:11:00;;;;;;;62.35;33.28;;;3.50;99.90;;;;;;20506991;28;20124;-41
2024/02/22 07:21:03;;;;;;;60.53;31.23;;;3.60;99.90;;;;;;20523554;28;21204;-44
2024/02/22 07:31:06;;;;;;;60.72;31.38;;;3.60;99.90;;;;;;20505488;28;20236;-41
2024/02/22 07:41:12;;;;;;;54.85;28.65;;;3.80;99.90;;;;;;20522428;28;20905;-42
2024/02/22 07:51:14;;;;;;;42.10;22.48;;;3.90;99.90;;;;;;20522170;28;20187;-41
2024/02/22 08:01:16;;;;;;;30.77;17.17;;;3.90;99.90;;;;;;20521227;28;20762;-42
2024/02/22 08:11:23;;;;;;;27.02;14.25;;;4.20;99.90;;;;;;20519358;28;20124;-42
2024/02/22 08:21:25;;;;;;;14.10;8.25;;;4.40;99.90;;;;;;20518946;28;20128;-40
2024/02/22 08:31:27;;;;;;;14.90;8.43;;;4.50;99.90;;;;;;20516156;28;20041;-42
2024/02/22 08:41:29;;;;;;;12.52;6.95;;;4.80;99.90;;;;;;20515987;28;20239;-42
2024/02/22 08:51:31;;;;;;;14.27;6.47;;;4.80;99.90;;;;;;20518450;28;20259;-43
2024/02/22 09:01:34;;;;;;;14.60;7.10;;;5.00;99.90;;;;;;20513993;28;21356;-42
2024/02/22 09:11:36;;;;;;;16.63;9.20;;;5.10;99.90;;;;;;20515624;28;20124;-41
2024/02/22 09:21:37;;;;;;;13.55;8.25;;;5.10;99.90;;;;;;20516504;28;20167;-41
2024/02/22 09:31:39;;;;;;;14.07;8.18;;;5.40;99.90;;;;;;20517618;28;20037;-42
2024/02/22 09:41:42;;;;;;;22.10;9.95;;;5.40;99.90;;;;;;20514022;28;20187;-43
2024/02/22 09:51:44;;;;;;;25.95;14.05;;;5.20;99.90;;;;;;20514281;28;20076;-42
2024/02/22 10:01:46;;;;;;;35.25;20.15;;;5.10;99.90;;;;;;20510582;28;20495;-43
2024/02/22 10:11:48;;;;;;;28.42;16.42;;;5.10;99.90;;;;;;20514906;28;20041;-42
2024/02/22 10:21:55;;;;;;;52.95;25.73;;;5.20;99.90;;;;;;20518651;28;20099;-42
2024/02/22 10:31:57;;;;;;;52.25;28.00;;;5.30;99.90;;;;;;20512229;28;21117;-44
2024/02/22 10:41:59;;;;;;;65.55;33.03;;;5.70;99.90;;;;;;20514687;28;21101;-43
2024/02/22 10:52:04;;;;;;;416.05;50.92;;;5.50;99.90;;;;;;20273124;28;21021;-43
2024/02/22 11:02:10;;;;;;;458.20;50.13;;;5.10;99.90;;;;;;20272425;28;20137;-43
2024/02/22 11:12:15;;;;;;;725.53;55.03;;;4.80;99.90;;;;;;20274383;28;20046;-42
2024/02/22 11:22:18;;;;;;;587.50;47.00;;;4.90;99.90;;;;;;20469655;28;20049;-42
2024/02/22 11:32:21;;;;;;;528.78;47.45;;;5.10;99.90;;;;;;20522005;28;20163;-44
2024/02/22 11:42:23;;;;;;;241.82;31.65;;;5.10;99.90;;;;;;20521778;28;20718;-42
2024/02/22 11:52:26;;;;;;;929.67;53.70;;;5.00;99.90;;;;;;20518928;28;20811;-55
2024/02/22 12:02:39;;;;;;;1502.50;71.15;;;4.80;99.90;;;;;;20522152;28;20255;-43
2024/02/22 12:12:41;;;;;;;208.95;15.35;;;4.60;99.90;;;;;;20522466;28;20122;-41
2024/02/22 12:22:46;;;;;;;1021.88;50.13;;;4.50;99.90;;;;;;20519541;28;21259;-42
2024/02/22 12:32:51;;;;;;;567.58;28.85;;;4.50;99.90;;;;;;20522689;28;20125;-42
2024/02/22 12:42:54;;;;;;;536.95;21.02;;;4.40;99.90;;;;;;20521087;28;20142;-44
2024/02/22 12:52:55;;;;;;;343.00;15.30;;;4.50;99.90;;;;;;20519067;28;20062;-44
2024/02/22 13:03:00;;;;;;;505.75;18.42;;;4.50;99.90;;;;;;20516934;28;20179;-44
2024/02/22 13:13:03;;;;;;;1000.67;40.75;;;4.50;99.90;;;;;;20519697;28;20120;-42
2024/02/22 13:23:05;;;;;;;1065.80;44.70;;;4.40;99.90;;;;;;20520730;28;20247;-45
2024/02/22 13:33:07;;;;;;;1380.65;52.30;;;4.40;99.90;;;;;;20519001;28;20139;-42
2024/02/22 13:43:09;;;;;;;41.50;4.30;;;4.40;99.90;;;;;;20513954;28;21014;-45
2024/02/22 13:53:11;;;;;;;5.60;2.90;;;4.30;99.90;;;;;;20513326;28;20184;-39
2024/02/22 14:03:15;;;;;;;3.92;2.13;;;4.20;99.90;;;;;;20534599;28;21005;-43
2024/02/22 14:13:21;;;;;;;5.55;2.03;;;4.10;99.90;;;;;;20533906;28;20282;-42
2024/02/22 14:23:23;;;;;;;2.83;1.35;;;4.20;99.90;;;;;;20529365;28;20128;-44
2024/02/22 14:33:25;;;;;;;3.75;2.10;;;4.10;99.90;;;;;;20529036;28;20640;-43
2024/02/22 14:43:27;;;;;;;5.45;3.20;;;4.20;99.90;;;;;;20527779;28;20172;-45
2024/02/22 14:53:29;;;;;;;7.47;4.07;;;4.00;99.90;;;;;;20522743;28;20868;-44
2024/02/22 15:03:32;;;;;;;8.75;4.93;;;3.70;99.90;;;;;;20528072;28;21053;-42
2024/02/22 15:13:40;;;;;;;574.80;35.80;;;3.60;99.90;;;;;;20526439;28;20120;-42
2024/02/22 15:23:41;;;;;;;781.63;42.80;;;3.60;99.90;;;;;;20523467;28;21135;-41
2024/02/22 15:33:43;;;;;;;10.00;5.45;;;3.50;99.90;;;;;;20522451;28;20457;-42
2024/02/22 15:43:45;;;;;;;4.25;2.15;;;3.50;99.90;;;;;;20520204;28;20795;-42
2024/02/22 15:53:47;;;;;;;147.18;12.43;;;3.40;99.90;;;;;;20524411;28;20861;-43
2024/02/22 16:03:49;;;;;;;464.58;24.27;;;3.40;99.90;;;;;;20520858;28;20065;-43
2024/02/22 16:13:51;;;;;;;35.78;6.88;;;3.40;99.90;;;;;;20521520;28;20120;-42
2024/02/22 16:23:54;;;;;;;8.02;3.05;;;3.30;99.90;;;;;;20519392;28;20148;-41
2024/02/22 16:34:00;;;;;;;6.88;4.40;;;3.30;99.90;;;;;;20516895;28;20271;-42
2024/02/22 16:44:01;;;;;;;3.28;1.98;;;3.30;99.90;;;;;;20519707;28;20975;-42
2024/02/22 16:54:04;;;;;;;5.00;2.08;;;3.50;99.90;;;;;;20517195;28;20148;-41
2024/02/22 17:04:05;;;;;;;5.22;2.55;;;3.40;99.90;;;;;;20499890;28;21459;-42
2024/02/22 17:14:08;;;;;;;2.50;1.20;;;3.50;99.90;;;;;;20515892;28;20124;-41
2024/02/22 17:24:10;;;;;;;2.25;1.25;;;3.40;99.90;;;;;;20519918;28;20176;-43
2024/02/22 17:34:11;;;;;;;5.05;2.97;;;3.50;99.90;;;;;;20529194;28;20183;-42
2024/02/22 17:44:14;;;;;;;170.25;10.15;;;3.50;99.90;;;;;;20534254;28;20613;-43
2024/02/22 17:54:16;;;;;;;1.67;0.93;;;3.60;99.90;;;;;;20534228;28;21239;-41
2024/02/22 18:04:21;;;;;;;2.40;1.30;;;3.60;99.90;;;;;;20531619;28;20145;-41
2024/02/22 18:14:31;;;;;;;2.55;1.60;;;3.60;99.90;;;;;;20531092;28;20120;-41
2024/02/22 18:24:33;;;;;;;5.13;2.70;;;3.50;99.90;;;;;;20530741;28;20128;-42
2024/02/22 18:34:35;;;;;;;33.15;5.10;;;3.50;99.90;;;;;;20529391;28;20172;-42
2024/02/22 18:44:39;;;;;;;187.00;10.65;;;3.50;99.90;;;;;;20528611;28;20186;-43
2024/02/22 18:54:41;;;;;;;9.82;3.22;;;3.50;99.90;;;;;;20529151;28;20263;-42
2024/02/22 19:04:43;;;;;;;4.93;2.53;;;3.40;99.90;;;;;;20512959;28;20621;-42
2024/02/22 19:14:44;;;;;;;233.57;14.60;;;3.30;99.90;;;;;;20528080;28;20164;-43
2024/02/22 19:24:46;;;;;;;303.65;12.38;;;3.20;99.90;;;;;;20524528;28;20042;-42
2024/02/22 19:34:48;;;;;;;216.57;9.60;;;3.20;99.90;;;;;;20526058;28;20176;-42
2024/02/22 19:44:50;;;;;;;649.28;34.95;;;3.10;99.90;;;;;;20525148;28;20191;-42
2024/02/22 19:54:52;;;;;;;11.32;2.38;;;3.10;99.90;;;;;;20505784;28;20812;-41
2024/02/22 20:04:54;;;;;;;9.35;2.90;;;3.00;99.90;;;;;;20507420;28;20065;-46
2024/02/22 20:14:57;;;;;;;6.38;2.30;;;2.80;99.90;;;;;;20526275;28;20244;-41
2024/02/22 20:24:59;;;;;;;4.40;1.70;;;2.70;99.90;;;;;;20526225;28;21096;-44
2024/02/22 20:35:01;;;;;;;3.08;2.10;;;2.70;99.90;;;;;;20522590;28;20967;-42
2024/02/22 20:45:04;;;;;;;8.57;2.90;;;2.70;99.90;;;;;;20522649;28;21294;-44
2024/02/22 20:55:09;;;;;;;2.17;1.08;;;2.70;99.90;;;;;;20523485;28;20128;-41
2024/02/22 21:05:11;;;;;;;2.92;1.85;;;2.70;99.90;;;;;;20522058;28;20159;-43
2024/02/22 21:15:13;;;;;;;4.97;1.60;;;2.60;99.90;;;;;;20521630;28;20166;-42
2024/02/22 21:25:15;;;;;;;19.02;2.75;;;2.40;99.90;;;;;;20518238;28;20116;-41
2024/02/22 21:35:19;;;;;;;2.83;1.50;;;2.50;99.90;;;;;;20520755;28;21284;-42
2024/02/22 21:45:22;;;;;;;1.30;0.75;;;2.30;99.90;;;;;;20521633;28;20124;-41
2024/02/22 21:55:24;;;;;;;1.70;1.33;;;2.20;99.90;;;;;;20517146;28;20822;-46
2024/02/22 22:05:27;;;;;;;6.28;1.92;;;2.20;99.90;;;;;;20520829;28;20073;-41
2024/02/22 22:15:30;;;;;;;23.85;3.53;;;2.30;99.90;;;;;;20521106;28;20168;-46
2024/02/22 22:25:32;;;;;;;5.25;2.22;;;2.40;99.90;;;;;;20533595;28;20246;-41
2024/02/22 22:35:34;;;;;;;4.85;3.05;;;2.30;99.90;;;;;;20535557;28;21200;-43
2024/02/22 22:45:36;;;;;;;3.70;2.30;;;2.20;99.90;;;;;;20533868;28;20838;-44
2024/02/22 22:55:39;;;;;;;5.88;3.20;;;2.20;99.90;;;;;;20529782;28;20049;-44
2024/02/22 23:05:41;;;;;;;3.55;2.60;;;1.90;99.90;;;;;;20514140;28;20834;-43
2024/02/22 23:15:43;;;;;;;3.53;2.30;;;1.70;99.90;;;;;;20526119;28;20041;-44
2024/02/22 23:25:45;;;;;;;3.00;2.00;;;1.30;99.90;;;;;;20520934;28;20122;-42
2024/02/22 23:35:49;;;;;;;3.10;1.73;;;1.10;99.90;;;;;;20519787;28;20551;-45
2024/02/22 23:45:51;;;;;;;5.55;3.33;;;1.00;99.90;;;;;;20523811;28;20656;-47
2024/02/22 23:55:53;;;;;;;3.33;2.30;;;0.90;99.90;;;;;;20523106;28;20187;-43
